Time;durP1;ratioP1;P1;durP2;ratioP2;P2;SDS_P1;SDS_P2;PMS_P1;PMS_P2;Temp;Humidity;BMP_temperature;BMP_pressure;BME280_temperature;BME280_humidity;BME280_pressure;Samples;Min_cycle;Max_cycle;Signal;HPM_P1;HPM_P2
2023/03/04 08:14:30;;;;;;;7.05;3.08;;;7.30;1.00;;;;;;6167922;23;20234;-83
2023/03/04 08:17:15;;;;;;;11.65;3.67;;;7.40;1.00;;;;;;6162061;22;20247;-85
2023/03/04 08:19:44;;;;;;;11.07;3.80;;;7.50;1.00;;;;;;6263008;22;20514;-85
2023/03/04 08:22:23;;;;;;;12.52;3.97;;;7.60;1.00;;;;;;6290167;22;20378;-86
2023/03/04 08:24:51;;;;;;;14.77;3.47;;;7.70;1.00;;;;;;6262336;22;20235;-84
2023/03/04 08:27:49;;;;;;;9.02;4.55;;;7.80;1.00;;;;;;6261885;22;20763;-86
2023/03/04 08:30:59;;;;;;;;;;;;;;;;;;;;;
2023/03/04 08:33:27;;;;;;;7.18;3.35;;;7.90;1.00;;;;;;6275493;22;20666;-85
2023/03/04 08:36:11;;;;;;;12.97;3.80;;;8.00;1.00;;;;;;6259170;22;20149;-86
2023/03/04 08:38:36;;;;;;;18.87;4.97;;;8.00;1.00;;;;;;6259685;22;20375;-85
2023/03/04 08:41:15;;;;;;;9.90;3.80;;;8.10;1.00;;;;;;6285860;22;20397;-87
2023/03/04 08:44:11;;;;;;;15.23;3.80;;;8.20;1.00;;;;;;6256106;22;20156;-85
2023/03/04 08:47:24;;;;;;;17.23;4.30;;;8.10;1.00;;;;;;6267556;22;20448;-86
2023/03/04 08:50:28;;;;;;;;;;;;;;;;;;;;;
2023/03/04 08:57:06;;;;;;;;;;;;;;;;;;;;;
2023/03/04 09:06:18;;;;;;;11.23;3.10;;;10.10;99.90;;;;;;6153519;23;20953;-86
2023/03/04 09:09:04;;;;;;;11.53;3.37;;;11.00;99.90;;;;;;6250345;22;20407;-86
2023/03/04 09:11:49;;;;;;;8.63;3.47;;;11.70;99.90;;;;;;6277835;22;20393;-85
2023/03/04 09:14:20;;;;;;;10.57;2.70;;;11.90;99.90;;;;;;6274755;22;20715;-86
2023/03/04 09:20:40;;;;;;;9.40;3.57;;;11.40;99.90;;;;;;6266240;22;20872;-87
2023/03/04 09:44:31;;;;;;;;;;;;;;;;;;;;;
2023/03/04 09:51:03;;;;;;;;;;;;;;;;;;;;;
2023/03/04 09:54:24;;;;;;;;;;;;;;;;;;;;;
2023/03/04 09:57:31;;;;;;;;;;;;;;;;;;;;;
2023/03/04 10:04:53;;;;;;;5.37;1.53;;;14.60;99.90;;;;;;6048741;23;20411;-85
2023/03/04 10:11:48;;;;;;;;;;;;;;;;;;;;;
2023/03/04 10:18:42;;;;;;;9.10;2.33;;;12.40;99.90;;;;;;6251846;22;20421;-85
2023/03/04 10:21:36;;;;;;;7.17;1.87;;;13.70;99.90;;;;;;6267955;22;20426;-85
2023/03/04 10:24:51;;;;;;;;;;;;;;;;;;;;;
2023/03/04 10:34:12;;;;;;;4.30;1.23;;;20.30;99.90;;;;;;6274639;22;20908;-87
2023/03/04 10:37:14;;;;;;;7.43;1.57;;;19.50;99.90;;;;;;6237763;22;20418;-86
2023/03/04 10:40:24;;;;;;;;;;;;;;;;;;;;;
2023/03/04 10:43:16;;;;;;;4.77;1.80;;;17.90;99.90;;;;;;6284232;22;20385;-85
2023/03/04 10:45:52;;;;;;;;;;;;;;;;;;;;;
2023/03/04 10:48:43;;;;;;;5.30;1.70;;;15.90;99.90;;;;;;6285700;22;20378;-85
2023/03/04 10:51:26;;;;;;;5.63;1.50;;;15.20;99.90;;;;;;6240324;22;20793;-86
2023/03/04 10:54:40;;;;;;;;;;;;;;;;;;;;;
2023/03/04 10:57:27;;;;;;;6.23;1.80;;;13.70;99.90;;;;;;6246959;22;20414;-85
2023/03/04 11:00:00;;;;;;;7.77;1.20;;;12.90;99.90;;;;;;6281146;22;20382;-86
2023/03/04 11:02:34;;;;;;;5.80;2.67;;;12.60;99.90;;;;;;6256641;22;20415;-85
2023/03/04 11:05:18;;;;;;;7.53;2.20;;;12.50;99.90;;;;;;6257810;22;20379;-86
2023/03/04 11:08:14;;;;;;;;;;;;;;;;;;;;;
2023/03/04 11:10:50;;;;;;;6.03;1.47;;;12.90;99.90;;;;;;6282993;22;20422;-86
2023/03/04 11:13:27;;;;;;;2.60;1.30;;;13.00;99.90;;;;;;6283310;22;20429;-85
2023/03/04 11:16:38;;;;;;;3.53;1.10;;;12.80;99.90;;;;;;6282666;22;20371;-85
2023/03/04 11:19:34;;;;;;;7.67;1.93;;;12.50;99.90;;;;;;6239379;22;20456;-86
2023/03/04 11:22:01;;;;;;;2.90;1.77;;;12.20;99.90;;;;;;6281995;22;20372;-86
2023/03/04 11:24:35;;;;;;;5.67;1.80;;;11.90;99.90;;;;;;6282444;22;20442;-86
2023/03/04 11:27:29;;;;;;;4.77;1.63;;;11.60;99.90;;;;;;6255933;22;20446;-84
2023/03/04 11:30:02;;;;;;;5.40;1.43;;;11.30;99.90;;;;;;6281474;22;20391;-85
2023/03/04 11:32:47;;;;;;;3.87;2.03;;;11.30;99.90;;;;;;6255030;22;20399;-86
2023/03/04 11:35:48;;;;;;;4.77;2.10;;;11.40;99.90;;;;;;6280810;22;20694;-87
2023/03/04 11:39:04;;;;;;;7.17;2.90;;;11.50;99.90;;;;;;6283809;22;20355;-86
2023/03/04 11:41:57;;;;;;;8.90;2.43;;;11.70;99.90;;;;;;6282138;22;20396;-85
2023/03/04 11:44:37;;;;;;;5.70;2.27;;;12.20;99.90;;;;;;6254376;22;20372;-85
2023/03/04 11:50:46;;;;;;;3.87;1.70;;;12.40;99.90;;;;;;6258187;22;20414;-85
2023/03/04 11:53:32;;;;;;;10.27;1.67;;;12.10;99.90;;;;;;6254289;22;20390;-85
2023/03/04 11:56:03;;;;;;;4.70;1.80;;;11.80;99.90;;;;;;6251833;22;20448;-86
2023/03/04 11:59:03;;;;;;;5.23;2.77;;;11.60;99.90;;;;;;6253222;22;20449;-84
2023/03/04 12:01:52;;;;;;;1.83;1.10;;;11.40;99.90;;;;;;6252230;22;20762;-86
2023/03/04 12:04:49;;;;;;;4.90;1.50;;;11.50;99.90;;;;;;6280999;22;20363;-86
2023/03/04 12:07:54;;;;;;;6.43;1.97;;;11.60;99.90;;;;;;6259487;22;20414;-85
2023/03/04 12:10:43;;;;;;;3.93;1.40;;;11.70;99.90;;;;;;6281515;22;20388;-87
2023/03/04 12:13:27;;;;;;;4.33;1.70;;;11.50;99.90;;;;;;6254772;22;20835;-86
2023/03/04 12:16:12;;;;;;;5.77;1.80;;;11.40;99.90;;;;;;6281772;22;20375;-86
2023/03/04 12:56:21;;;;;;;6.03;1.90;;;11.90;99.90;;;;;;6220185;22;20498;-86
2023/03/04 13:03:04;;;;;;;6.30;2.00;;;11.90;99.90;;;;;;6220849;22;20389;-85
2023/03/04 13:06:01;;;;;;;;;;;;;;;;;;;;;
2023/03/04 13:12:22;;;;;;;;;;;;;;;;;;;;;
2023/03/04 13:15:29;;;;;;;5.33;1.43;;;11.00;99.90;;;;;;6276849;22;20454;-86
2023/03/04 13:18:25;;;;;;;3.47;1.67;;;11.00;99.90;;;;;;6251941;22;20389;-86
2023/03/04 13:25:09;;;;;;;4.63;1.93;;;11.40;99.90;;;;;;6263116;22;20429;-86
2023/03/04 13:32:02;;;;;;;5.93;2.57;;;11.00;99.90;;;;;;6212173;23;20582;-85
2023/03/04 13:42:05;;;;;;;3.77;2.07;;;10.60;99.90;;;;;;6065163;23;20962;-85
2023/03/04 13:48:43;;;;;;;7.47;2.20;;;10.30;99.90;;;;;;6252661;22;20383;-85
2023/03/04 13:51:43;;;;;;;;;;;;;;;;;;;;;
2023/03/04 13:58:03;;;;;;;;;;;;;;;;;;;;;
2023/03/04 14:00:59;;;;;;;4.70;2.23;;;10.00;99.90;;;;;;6277048;22;20470;-86
2023/03/04 14:10:43;;;;;;;6.70;1.73;;;10.60;99.90;;;;;;6214657;22;20841;-85
2023/03/04 14:13:32;;;;;;;4.50;1.63;;;10.70;99.90;;;;;;6238310;22;20724;-85
2023/03/04 14:19:40;;;;;;;3.87;1.53;;;10.80;99.90;;;;;;6151603;23;20392;-85
2023/03/04 14:30:20;;;;;;;;;;;;;;;;;;;;;
2023/03/04 14:41:32;;;;;;;;;;;;;;;;;;;;;
2023/03/04 14:50:44;;;;;;;;;;;;;;;;;;;;;
2023/03/04 14:56:06;;;;;;;4.40;2.33;;;9.90;99.90;;;;;;6256675;22;20385;-82
2023/03/04 14:59:19;;;;;;;3.63;2.13;;;9.80;99.90;;;;;;6250901;22;20374;-83
2023/03/04 15:02:21;;;;;;;4.70;2.70;;;9.80;99.90;;;;;;6275764;22;20481;-83
2023/03/04 15:04:50;;;;;;;6.60;2.60;;;9.70;99.90;;;;;;6280307;22;20399;-85
2023/03/04 15:07:50;;;;;;;;;;;;;;;;;;;;;
2023/03/04 15:10:27;;;;;;;7.50;2.90;;;9.50;99.90;;;;;;6280094;22;20426;-82
2023/03/04 15:12:59;;;;;;;5.47;3.70;;;9.40;99.90;;;;;;6276753;22;20442;-81
2023/03/04 15:15:42;;;;;;;13.45;4.82;;;9.40;99.90;;;;;;6279987;22;20366;-82
2023/03/04 15:18:13;;;;;;;9.23;4.30;;;9.40;99.90;;;;;;6279480;22;20225;-82
2023/03/04 15:20:41;;;;;;;8.03;5.63;;;9.40;99.90;;;;;;6281026;22;20394;-82
2023/03/04 15:23:07;;;;;;;12.27;5.57;;;9.40;99.90;;;;;;6278776;22;20411;-82
2023/03/04 15:25:48;;;;;;;;;;;;;;;;;;;;;
2023/03/04 15:28:17;;;;;;;6.50;3.60;;;9.30;99.90;;;;;;6280278;22;21049;-82
2023/03/04 15:30:42;;;;;;;4.50;3.70;;;9.30;99.90;;;;;;6252506;22;20961;-81
2023/03/04 15:33:12;;;;;;;5.70;4.37;;;9.40;99.90;;;;;;6279541;22;20382;-81
2023/03/04 15:35:46;;;;;;;5.67;4.00;;;9.40;1.00;;;;;;6280772;22;20473;-83
2023/03/04 15:38:12;;;;;;;7.63;4.00;;;9.40;1.00;;;;;;6277431;22;20362;-81
2023/03/04 15:40:45;;;;;;;9.23;5.33;;;9.40;1.00;;;;;;6252609;22;20601;-82
2023/03/04 15:43:16;;;;;;;5.53;4.60;;;9.30;1.00;;;;;;6253378;22;20708;-82
2023/03/04 15:45:42;;;;;;;7.57;4.00;;;9.20;1.00;;;;;;6252996;22;20383;-81
2023/03/04 15:48:11;;;;;;;4.97;3.17;;;9.20;1.00;;;;;;6279865;22;20824;-82
2023/03/04 15:50:45;;;;;;;6.10;3.07;;;9.20;1.00;;;;;;6280537;22;20172;-81
2023/03/04 15:53:26;;;;;;;4.00;3.30;;;9.20;1.00;;;;;;6252238;22;20456;-83
2023/03/04 15:55:52;;;;;;;5.30;3.55;;;9.20;1.00;;;;;;6279570;22;20446;-82
2023/03/04 15:58:18;;;;;;;4.40;3.73;;;9.00;1.00;;;;;;6280380;22;20176;-80
2023/03/04 16:00:43;;;;;;;5.20;4.03;;;8.90;99.90;;;;;;6278119;22;20403;-82
2023/03/04 16:03:16;;;;;;;7.73;4.50;;;8.80;99.90;;;;;;6250851;22;20301;-81
2023/03/04 16:05:43;;;;;;;6.28;3.85;;;8.80;99.90;;;;;;6278655;22;20144;-82
2023/03/04 16:08:13;;;;;;;5.38;3.75;;;8.80;99.90;;;;;;6278513;22;20503;-81
2023/03/04 16:10:38;;;;;;;5.15;3.40;;;8.70;99.90;;;;;;6252419;22;20493;-83
2023/03/04 16:13:13;;;;;;;4.30;3.70;;;8.70;1.00;;;;;;6250313;22;20192;-81
2023/03/04 16:15:39;;;;;;;6.82;4.30;;;8.70;1.00;;;;;;6279135;22;20133;-81
2023/03/04 16:18:08;;;;;;;9.50;4.87;;;8.70;1.00;;;;;;6280323;22;20159;-82
2023/03/04 16:20:36;;;;;;;9.40;6.70;;;8.60;1.00;;;;;;6279960;22;20399;-81
2023/03/04 16:23:02;;;;;;;8.43;5.28;;;8.60;38.00;;;;;;6252986;22;20187;-81
2023/03/04 16:25:29;;;;;;;6.63;5.65;;;8.50;91.00;;;;;;6254061;22;20221;-81
2023/03/04 16:28:01;;;;;;;6.28;5.60;;;8.50;99.90;;;;;;6249955;22;20499;-81
2023/03/04 16:30:30;;;;;;;7.45;5.18;;;8.40;1.00;;;;;;6279600;22;20301;-80
2023/03/04 16:32:55;;;;;;;7.88;5.63;;;8.40;1.00;;;;;;6280187;22;20153;-82
2023/03/04 16:35:27;;;;;;;5.73;5.13;;;8.40;16.30;;;;;;6251450;22;20168;-81
2023/03/04 16:38:26;;;;;;;;;;;;;;;;;;;;;
2023/03/04 16:47:11;;;;;;;6.28;5.35;;;8.40;99.90;;;;;;6215665;22;20192;-82
2023/03/04 16:49:42;;;;;;;12.65;6.25;;;8.40;99.90;;;;;;6254452;22;20180;-82
2023/03/04 16:52:24;;;;;;;7.50;5.55;;;8.50;1.00;;;;;;6280219;22;20143;-81
2023/03/04 16:54:50;;;;;;;8.50;5.68;;;8.40;1.00;;;;;;6281975;22;20141;-81
2023/03/04 16:57:27;;;;;;;9.40;5.30;;;8.40;1.00;;;;;;6281534;22;20257;-81
2023/03/04 17:00:07;;;;;;;;;;;;;;;;;;;;;
2023/03/04 17:03:13;;;;;;;6.30;5.43;;;8.40;16.20;;;;;;6279193;22;20199;-81
2023/03/04 17:09:51;;;;;;;;;;;;;;;;;;;;;
2023/03/04 17:12:49;;;;;;;;;;;;;;;;;;;;;
2023/03/04 17:15:49;;;;;;;7.40;6.05;;;8.30;1.00;;;;;;6269020;22;20543;-82
2023/03/04 17:18:37;;;;;;;8.02;5.90;;;8.20;1.00;;;;;;6282464;22;20205;-81
2023/03/04 17:24:18;;;;;;;8.70;5.90;;;8.20;99.90;;;;;;6255664;22;20518;-80
2023/03/04 17:27:24;;;;;;;;;;;;;;;;;;;;;
2023/03/04 17:30:18;;;;;;;9.65;6.72;;;8.10;93.60;;;;;;6286787;22;20197;-81
2023/03/04 17:36:05;;;;;;;;;;;;;;;;;;;;;
2023/03/04 17:38:51;;;;;;;12.15;7.03;;;8.10;1.00;;;;;;6284109;22;20190;-80
2023/03/04 17:51:50;;;;;;;;;;;;;;;;;;;;;
2023/03/04 17:54:56;;;;;;;10.32;6.20;;;7.90;99.90;;;;;;6217123;23;20284;-82
2023/03/04 17:58:05;;;;;;;10.25;6.60;;;7.90;99.90;;;;;;6281875;22;20152;-82
2023/03/04 18:01:22;;;;;;;;;;;;;;;;;;;;;
2023/03/04 18:04:18;;;;;;;7.47;6.78;;;7.90;99.90;;;;;;6271075;22;20171;-81
2023/03/04 18:10:13;;;;;;;13.38;8.95;;;8.00;99.90;;;;;;6258385;22;20176;-85
2023/03/04 18:16:13;;;;;;;7.10;6.25;;;8.00;1.00;;;;;;6244749;22;20170;-85
2023/03/04 18:18:46;;;;;;;9.55;5.18;;;8.10;1.00;;;;;;6280910;22;20141;-86
2023/03/04 18:21:17;;;;;;;10.05;6.55;;;8.10;99.90;;;;;;6252019;22;20180;-84
2023/03/04 18:23:47;;;;;;;8.00;5.80;;;8.10;1.00;;;;;;6281639;22;20181;-84
2023/03/04 18:39:57;;;;;;;;;;;;;;;;;;;;;
2023/03/04 18:42:58;;;;;;;;;;;;;;;;;;;;;
2023/03/04 18:49:30;;;;;;;;;;;;;;;;;;;;;
2023/03/04 18:52:57;;;;;;;4.07;2.15;;;7.90;99.90;;;;;;6250119;22;20566;-84
2023/03/04 18:59:15;;;;;;;;;;;;;;;;;;;;;
2023/03/04 19:02:23;;;;;;;;;;;;;;;;;;;;;
2023/03/04 19:12:37;;;;;;;;;;;;;;;;;;;;;
2023/03/04 19:22:05;;;;;;;;;;;;;;;;;;;;;
2023/03/04 19:35:56;;;;;;;9.85;3.60;;;7.50;1.00;;;;;;6248772;22;20172;-83
2023/03/04 19:48:49;;;;;;;;;;;;;;;;;;;;;
2023/03/04 19:55:16;;;;;;;17.58;2.60;;;7.50;1.00;;;;;;6276035;22;20167;-84
2023/03/04 19:58:51;;;;;;;5.63;2.15;;;7.50;1.00;;;;;;6264898;22;20160;-84
2023/03/04 20:02:10;;;;;;;7.20;3.63;;;7.50;1.00;;;;;;6278829;22;20259;-84
2023/03/04 20:05:19;;;;;;;5.57;3.05;;;7.40;1.00;;;;;;6275613;22;20216;-85
2023/03/04 20:08:25;;;;;;;5.43;2.47;;;7.40;1.00;;;;;;6256120;22;20187;-85
2023/03/04 20:11:30;;;;;;;4.32;2.03;;;7.40;1.00;;;;;;6250731;22;20758;-84
2023/03/04 20:27:47;;;;;;;4.53;1.92;;;7.40;1.00;;;;;;6277208;22;20267;-85
2023/03/04 20:30:16;;;;;;;6.50;1.85;;;7.40;1.00;;;;;;6280332;22;20176;-85
2023/03/04 20:33:21;;;;;;;;;;;;;;;;;;;;;
2023/03/04 20:36:40;;;;;;;;;;;;;;;;;;;;;
2023/03/04 20:39:19;;;;;;;;;;;;;;;;;;;;;
2023/03/04 20:44:49;;;;;;;11.70;4.28;;;7.30;1.00;;;;;;6270078;22;20190;-84
2023/03/04 20:47:14;;;;;;;6.90;2.00;;;7.30;1.00;;;;;;6270050;22;20180;-83
2023/03/04 20:49:43;;;;;;;6.13;1.60;;;7.40;1.00;;;;;;6295664;22;20164;-83
2023/03/04 20:52:10;;;;;;;4.22;2.17;;;7.30;1.00;;;;;;6294170;22;20155;-83
2023/03/04 20:54:37;;;;;;;6.80;1.98;;;7.40;1.00;;;;;;6269312;22;20179;-83
2023/03/04 20:57:06;;;;;;;7.82;2.20;;;7.40;1.00;;;;;;6296034;22;20148;-83
2023/03/04 20:59:34;;;;;;;6.50;2.97;;;7.40;1.00;;;;;;6266849;22;20169;-82
2023/03/04 21:06:30;;;;;;;;;;;;;;;;;;;;;
2023/03/04 21:13:35;;;;;;;;;;;;;;;;;;;;;
2023/03/04 21:57:27;;;;;;;3.35;1.85;;;7.40;1.00;;;;;;6264720;22;20162;-83
2023/03/04 22:17:59;;;;;;;9.30;2.60;;;7.20;1.00;;;;;;6252115;22;20531;-85
2023/03/04 22:20:58;;;;;;;;;;;;;;;;;;;;;
2023/03/04 22:30:40;;;;;;;11.50;3.03;;;7.20;1.00;;;;;;6269517;22;20652;-83
2023/03/04 22:33:36;;;;;;;15.40;3.25;;;7.10;1.00;;;;;;6201558;22;20183;-84
2023/03/04 22:36:50;;;;;;;9.68;4.15;;;7.10;1.00;;;;;;6283971;22;20457;-84
2023/03/04 22:43:32;;;;;;;11.32;3.90;;;7.10;1.00;;;;;;6269454;22;20235;-84
2023/03/04 22:50:03;;;;;;;;;;;;;;;;;;;;;
2023/03/04 22:56:37;;;;;;;;;;;;;;;;;;;;;
2023/03/04 22:59:43;;;;;;;6.30;2.70;;;7.00;1.00;;;;;;6275778;22;20192;-85
2023/03/04 23:03:17;;;;;;;;;;;;;;;;;;;;;
2023/03/04 23:06:13;;;;;;;;;;;;;;;;;;;;;
2023/03/04 23:09:15;;;;;;;8.77;2.03;;;6.90;1.00;;;;;;6286332;22;20329;-84
2023/03/04 23:18:28;;;;;;;;;;;;;;;;;;;;;
2023/03/04 23:24:31;;;;;;;;;;;;;;;;;;;;;
2023/03/04 23:27:36;;;;;;;;;;;;;;;;;;;;;
2023/03/04 23:33:50;;;;;;;;;;;;;;;;;;;;;
2023/03/04 23:44:30;;;;;;;8.65;1.70;;;6.70;1.00;;;;;;6261982;22;20591;-85
2023/03/04 23:56:02;;;;;;;;;;;;;;;;;;;;;
2023/03/04 23:59:06;;;;;;;;;;;;;;;;;;;;;
